| time (UTC) | temp F | wind direction | speed MPH | gust MPH | rain 1hr in | rain 24hr in | rain mn in | humidity % | barometer mb |
| 20260510175745 | 73 | 56 | 1.0 | 1.0 | 0.00 | 0.00 | 0.00 | 66 | 1013.4 |
| 20260510175240 | 72 | 301 | 2.0 | 2.0 | 0.00 | 0.00 | 0.00 | 65 | 1013.4 |
| 20260510174737 | 71 | 78 | 0.0 | 1.0 | 0.00 | 0.00 | 0.00 | 67 | 1013.7 |
| 20260510174234 | 71 | 178 | 1.0 | 2.0 | 0.00 | 0.00 | 0.00 | 66 | 1013.6 |
| 20260510173731 | 72 | 317 | 2.0 | 2.0 | 0.00 | 0.00 | 0.00 | 66 | 1013.3 |
| 20260510173226 | 73 | 315 | 0.0 | 0.0 | 0.00 | 0.00 | 0.00 | 65 | 1013.1 |
| 20260510172722 | 74 | 278 | 0.0 | 0.0 | 0.00 | 0.00 | 0.00 | 64 | 1013.2 |
| 20260510172218 | 74 | 276 | 0.0 | 0.0 | 0.00 | 0.00 | 0.00 | 66 | 1013.0 |
| 20260510171715 | 74 | 94 | 0.0 | 0.0 | 0.00 | 0.00 | 0.00 | 69 | 1013.2 |
| 20260510171212 | 74 | 67 | 0.0 | 1.0 | 0.00 | 0.00 | 0.00 | 67 | 1013.4 |
| 20260510170709 | 73 | 34 | 0.0 | 0.0 | 0.00 | 0.00 | 0.00 | 67 | 1013.2 |
| 20260510170205 | 73 | 122 | 1.0 | 2.0 | 0.00 | 0.00 | 0.00 | 65 | 1013.5 |
| 20260510165702 | 72 | 55 | 1.0 | 1.0 | 0.00 | 0.00 | 0.00 | 68 | 1013.2 |
| 20260510165158 | 71 | 179 | 2.0 | 2.0 | 0.00 | 0.00 | 0.00 | 68 | 1013.3 |
| 20260510164655 | 71 | 147 | 1.0 | 2.0 | 0.00 | 0.00 | 0.00 | 68 | 1013.3 |
| 20260510164152 | 71 | 157 | 1.0 | 1.0 | 0.00 | 0.00 | 0.00 | 68 | 1013.3 |
| 20260510163647 | 72 | 327 | 3.0 | 3.0 | 0.00 | 0.00 | 0.00 | 68 | 1013.5 |
| 20260510163143 | 70 | 120 | 0.0 | 0.0 | 0.00 | 0.00 | 0.00 | 71 | 1013.7 |
| 20260510162637 | 70 | 108 | 1.0 | 1.0 | 0.00 | 0.00 | 0.00 | 70 | 1013.4 |
| 20260510162135 | 69 | 285 | 2.0 | 3.0 | 0.00 | 0.00 | 0.00 | 72 | 1013.6 |
| 20260510161630 | 68 | 116 | 0.0 | 1.0 | 0.00 | 0.00 | 0.00 | 73 | 1013.2 |
| 20260510161127 | 69 | 126 | 0.0 | 1.0 | 0.00 | 0.00 | 0.00 | 73 | 1013.7 |
| 20260510160624 | 68 | 56 | 0.0 | 1.0 | 0.00 | 0.00 | 0.00 | 75 | 1013.6 |
| 20260510160124 | 67 | 91 | 1.0 | 1.0 | 0.00 | 0.00 | 0.00 | 76 | 1013.6 |
| 20260510155621 | 67 | 160 | 1.0 | 2.0 | 0.00 | 0.00 | 0.00 | 80 | 1013.7 |
| 20260510155117 | 66 | 133 | 0.0 | 1.0 | 0.00 | 0.00 | 0.00 | 80 | 1013.7 |
| 20260510154612 | 66 | 137 | 0.0 | 1.0 | 0.00 | 0.00 | 0.00 | 83 | 1013.5 |
| 20260510154108 | 65 | 156 | 0.0 | 1.0 | 0.00 | 0.00 | 0.00 | 85 | 1013.5 |
| 20260510153603 | 64 | 123 | 2.0 | 3.0 | 0.00 | 0.00 | 0.00 | 85 | 1013.6 |
| 20260510153100 | 63 | 140 | 1.0 | 1.0 | 0.00 | 0.00 | 0.00 | 88 | 1013.6 |
| 20260510152557 | 61 | 109 | 1.0 | 2.0 | 0.00 | 0.00 | 0.00 | 93 | 1014.0 |
| 20260510152053 | 62 | 160 | 1.0 | 2.0 | 0.00 | 0.00 | 0.00 | 95 | 1014.0 |
| 20260510151550 | 60 | 124 | 0.0 | 1.0 | 0.00 | 0.00 | 0.00 | 98 | 1013.7 |
| 20260510151048 | 60 | 108 | 2.0 | 2.0 | 0.00 | 0.00 | 0.00 | 99 | 1013.9 |
| 20260510150548 | 61 | 150 | 1.0 | 2.0 | 0.00 | 0.00 | 0.00 | 99 | 1013.7 |
| 20260510150044 | 60 | 145 | 2.0 | 2.0 | 0.00 | 0.00 | 0.00 | 99 | 1013.8 |
| 20260510145541 | 59 | 123 | 1.0 | 2.0 | 0.00 | 0.00 | 0.00 | 99 | 1013.5 |
| 20260510145037 | 59 | 101 | 0.0 | 1.0 | 0.00 | 0.00 | 0.00 | 99 | 1013.7 |
| 20260510144534 | 57 | 100 | 0.0 | 0.0 | 0.00 | 0.00 | 0.00 | 99 | 1014.0 |
| 20260510144030 | 58 | 116 | 0.0 | 0.0 | 0.00 | 0.00 | 0.00 | 99 | 1013.8 |
| 20260510143525 | 58 | 110 | 0.0 | 0.0 | 0.00 | 0.00 | 0.00 | 99 | 1013.8 |
| 20260510143022 | 57 | 89 | 0.0 | 0.0 | 0.00 | 0.00 | 0.00 | 99 | 1013.9 |
| 20260510142519 | 56 | 119 | 0.0 | 1.0 | 0.00 | 0.00 | 0.00 | 99 | 1013.8 |
| 20260510142016 | 56 | 118 | 2.0 | 2.0 | 0.00 | 0.00 | 0.00 | 99 | 1013.7 |
| 20260510141512 | 56 | 136 | 2.0 | 2.0 | 0.00 | 0.00 | 0.00 | 99 | 1013.6 |
| 20260510141010 | 55 | 126 | 0.0 | 1.0 | 0.00 | 0.00 | 0.00 | 99 | 1013.4 |
| 20260510140506 | 55 | 126 | 0.0 | 0.0 | 0.00 | 0.00 | 0.00 | 99 | 1013.6 |
| 20260510140000 | 55 | 123 | 1.0 | 1.0 | 0.00 | 0.00 | 0.00 | 99 | 1013.4 |
| 20260510135455 | 55 | 114 | 0.0 | 0.0 | 0.00 | 0.00 | 0.00 | 99 | 1013.5 |
| 20260510134953 | 55 | 103 | 0.0 | 0.0 | 0.00 | 0.00 | 0.00 | 99 | 1013.4 |
| 20260510134450 | 55 | 102 | 0.0 | 0.0 | 0.00 | 0.00 | 0.00 | 99 | 1013.6 |
| 20260510133947 | 55 | 101 | 0.0 | 1.0 | 0.00 | 0.00 | 0.00 | 99 | 1013.5 |
| 20260510133442 | 54 | 102 | 0.0 | 0.0 | 0.00 | 0.00 | 0.00 | 99 | 1013.3 |
| 20260510132938 | 54 | 110 | 0.0 | 0.0 | 0.00 | 0.00 | 0.00 | 99 | 1013.5 |
| 20260510132436 | 54 | 110 | 0.0 | 0.0 | 0.00 | 0.00 | 0.00 | 99 | 1013.8 |
| 20260510131932 | 53 | 110 | 0.0 | 0.0 | 0.00 | 0.00 | 0.00 | 99 | 1013.6 |
| 20260510131430 | 54 | 110 | 0.0 | 0.0 | 0.00 | 0.00 | 0.00 | 99 | 1013.6 |
| 20260510130926 | 54 | 125 | 1.0 | 1.0 | 0.00 | 0.00 | 0.00 | 99 | 1013.7 |
| 20260510130423 | 53 | 110 | 0.0 | 0.0 | 0.00 | 0.00 | 0.00 | 99 | 1013.5 |
| 20260510125921 | 53 | 122 | 2.0 | 2.0 | 0.00 | 0.00 | 0.00 | 99 | 1013.5 |
| 20260510125416 | 53 | 123 | 0.0 | 1.0 | 0.00 | 0.00 | 0.00 | 99 | 1013.2 |
| 20260510124914 | 53 | 130 | 2.0 | 2.0 | 0.00 | 0.00 | 0.00 | 99 | 1013.5 |
| 20260510124410 | 53 | 95 | 0.0 | 0.0 | 0.00 | 0.00 | 0.00 | 99 | 1013.2 |
| 20260510123906 | 53 | 138 | 1.0 | 2.0 | 0.00 | 0.00 | 0.00 | 99 | 1013.0 |
| 20260510123402 | 53 | 125 | 0.0 | 1.0 | 0.00 | 0.00 | 0.00 | 99 | 1013.0 |
| 20260510122858 | 53 | 106 | 0.0 | 0.0 | 0.00 | 0.00 | 0.00 | 99 | 1012.9 |
| 20260510122354 | 53 | 85 | 0.0 | 0.0 | 0.00 | 0.00 | 0.00 | 99 | 1013.1 |
| 20260510121850 | 53 | 25 | 1.0 | 1.0 | 0.00 | 0.00 | 0.00 | 99 | 1013.0 |
| 20260510121348 | 52 | 126 | 1.0 | 1.0 | 0.00 | 0.00 | 0.00 | 99 | 1012.9 |
| 20260510120845 | 52 | 112 | 0.0 | 0.0 | 0.00 | 0.00 | 0.00 | 99 | 1012.9 |
| 20260510120343 | 52 | 121 | 0.0 | 1.0 | 0.00 | 0.00 | 0.00 | 99 | 1012.9 |
| 20260510115838 | 51 | 113 | 0.0 | 1.0 | 0.00 | 0.00 | 0.00 | 99 | 1012.7 |
| 20260510115335 | 51 | 123 | 1.0 | 1.0 | 0.00 | 0.00 | 0.00 | 99 | 1013.0 |
| 20260510114831 | 52 | 110 | 0.0 | 0.0 | 0.00 | 0.00 | 0.00 | 99 | 1013.0 |
| 20260510114328 | 52 | 111 | 0.0 | 0.0 | 0.00 | 0.00 | 0.00 | 99 | 1012.7 |
| 20260510113828 | 51 | 109 | 0.0 | 0.0 | 0.00 | 0.00 | 0.00 | 99 | 1013.0 |
| 20260510113325 | 51 | 112 | 0.0 | 0.0 | 0.00 | 0.00 | 0.00 | 99 | 1012.7 |
| 20260510112822 | 51 | 85 | 0.0 | 0.0 | 0.00 | 0.00 | 0.00 | 99 | 1012.7 |
| 20260510112319 | 51 | 84 | 1.0 | 1.0 | 0.00 | 0.00 | 0.00 | 99 | 1012.7 |
| 20260510111815 | 51 | 82 | 0.0 | 0.0 | 0.00 | 0.00 | 0.00 | 99 | 1012.7 |
| 20260510111311 | 51 | 82 | 0.0 | 0.0 | 0.00 | 0.00 | 0.00 | 99 | 1012.4 |
| 20260510110811 | 51 | 78 | 0.0 | 0.0 | 0.00 | 0.00 | 0.00 | 99 | 1012.4 |
| 20260510110309 | 51 | 87 | 0.0 | 0.0 | 0.00 | 0.00 | 0.00 | 99 | 1012.3 |
| 20260510105804 | 51 | 106 | 0.0 | 0.0 | 0.00 | 0.00 | 0.00 | 99 | 1012.2 |
| 20260510105259 | 51 | 114 | 0.0 | 0.0 | 0.00 | 0.00 | 0.00 | 99 | 1012.1 |
| 20260510104756 | 51 | 131 | 1.0 | 1.0 | 0.00 | 0.00 | 0.00 | 99 | 1012.2 |
| 20260510104254 | 51 | 111 | 0.0 | 0.0 | 0.00 | 0.00 | 0.00 | 99 | 1012.0 |
| 20260510103749 | 51 | 105 | 0.0 | 0.0 | 0.00 | 0.00 | 0.00 | 99 | 1012.0 |
| 20260510103246 | 51 | 104 | 0.0 | 0.0 | 0.00 | 0.00 | 0.00 | 99 | 1012.2 |
| 20260510102746 | 51 | 103 | 0.0 | 0.0 | 0.00 | 0.00 | 0.00 | 99 | 1012.3 |
| 20260510102242 | 51 | 105 | 0.0 | 0.0 | 0.00 | 0.00 | 0.00 | 99 | 1012.2 |
| 20260510101740 | 51 | 99 | 0.0 | 0.0 | 0.00 | 0.00 | 0.00 | 99 | 1012.0 |
| 20260510101238 | 51 | 100 | 0.0 | 0.0 | 0.00 | 0.00 | 0.00 | 99 | 1012.1 |
| 20260510100733 | 50 | 96 | 0.0 | 0.0 | 0.00 | 0.00 | 0.00 | 99 | 1012.3 |
| 20260510100232 | 50 | 94 | 0.0 | 0.0 | 0.00 | 0.00 | 0.00 | 99 | 1012.2 |
| 20260510095727 | 50 | 94 | 0.0 | 0.0 | 0.00 | 0.00 | 0.00 | 99 | 1012.0 |
| 20260510095222 | 50 | 97 | 0.0 | 0.0 | 0.00 | 0.00 | 0.00 | 99 | 1012.1 |
| 20260510094721 | 50 | 97 | 0.0 | 0.0 | 0.00 | 0.00 | 0.00 | 99 | 1012.1 |
| 20260510094217 | 50 | 97 | 0.0 | 0.0 | 0.00 | 0.00 | 0.00 | 99 | 1012.1 |
| 20260510093713 | 50 | 95 | 0.0 | 0.0 | 0.00 | 0.00 | 0.00 | 99 | 1012.4 |
| 20260510093211 | 50 | 107 | 0.0 | 0.0 | 0.00 | 0.00 | 0.00 | 99 | 1012.2 |
| 20260510092707 | 50 | 106 | 0.0 | 0.0 | 0.00 | 0.00 | 0.00 | 99 | 1012.3 |
| 20260510092203 | 50 | 96 | 0.0 | 0.0 | 0.00 | 0.00 | 0.00 | 99 | 1012.3 |
| 20260510091658 | 50 | 97 | 0.0 | 0.0 | 0.00 | 0.00 | 0.00 | 99 | 1012.2 |
| 20260510091155 | 50 | 118 | 0.0 | 0.0 | 0.00 | 0.00 | 0.00 | 99 | 1012.3 |
| 20260510090652 | 50 | 89 | 0.0 | 0.0 | 0.00 | 0.00 | 0.00 | 99 | 1012.4 |
| 20260510090148 | 50 | 85 | 0.0 | 0.0 | 0.00 | 0.00 | 0.00 | 99 | 1012.4 |
| 20260510085643 | 50 | 85 | 0.0 | 0.0 | 0.00 | 0.00 | 0.00 | 99 | 1012.5 |
| 20260510085139 | 50 | 88 | 0.0 | 0.0 | 0.00 | 0.00 | 0.00 | 99 | 1012.8 |
| 20260510084635 | 50 | 82 | 0.0 | 0.0 | 0.00 | 0.00 | 0.00 | 99 | 1012.6 |
| 20260510084132 | 50 | 83 | 0.0 | 0.0 | 0.00 | 0.00 | 0.00 | 99 | 1012.6 |
| 20260510083629 | 50 | 82 | 0.0 | 0.0 | 0.00 | 0.00 | 0.00 | 99 | 1012.7 |
| 20260510083125 | 50 | 80 | 0.0 | 0.0 | 0.00 | 0.00 | 0.00 | 99 | 1012.1 |
| 20260510082621 | 50 | 46 | 0.0 | 0.0 | 0.00 | 0.00 | 0.00 | 99 | 1012.4 |
| 20260510082117 | 50 | 82 | 0.0 | 0.0 | 0.00 | 0.00 | 0.00 | 99 | 1012.3 |
| 20260510081612 | 50 | 349 | 2.0 | 2.0 | 0.00 | 0.00 | 0.00 | 99 | 1012.2 |
| 20260510081108 | 50 | 81 | 0.0 | 0.0 | 0.00 | 0.00 | 0.00 | 99 | 1011.9 |
| 20260510080602 | 50 | 82 | 0.0 | 0.0 | 0.00 | 0.00 | 0.00 | 99 | 1011.8 |
| 20260510080059 | 50 | 82 | 0.0 | 0.0 | 0.00 | 0.00 | 0.00 | 99 | 1011.6 |
| 20260510075556 | 49 | 82 | 0.0 | 0.0 | 0.00 | 0.00 | 0.00 | 99 | 1011.8 |
| 20260510075053 | 49 | 82 | 0.0 | 0.0 | 0.00 | 0.00 | 0.00 | 99 | 1011.5 |
| 20260510074550 | 49 | 82 | 0.0 | 0.0 | 0.00 | 0.00 | 0.00 | 99 | 1011.4 |
| 20260510074045 | 49 | 82 | 0.0 | 0.0 | 0.00 | 0.00 | 0.00 | 99 | 1011.4 |
| 20260510073542 | 49 | 82 | 0.0 | 0.0 | 0.00 | 0.00 | 0.00 | 99 | 1011.6 |
| 20260510073039 | 49 | 82 | 0.0 | 0.0 | 0.00 | 0.00 | 0.00 | 99 | 1011.7 |
| 20260510072536 | 49 | 82 | 0.0 | 0.0 | 0.00 | 0.00 | 0.00 | 99 | 1011.4 |
| 20260510072031 | 49 | 82 | 0.0 | 0.0 | 0.00 | 0.00 | 0.00 | 99 | 1011.6 |
| 20260510071527 | 49 | 82 | 0.0 | 0.0 | 0.00 | 0.00 | 0.00 | 99 | 1011.5 |
| 20260510071026 | 49 | 82 | 0.0 | 0.0 | 0.00 | 0.00 | 0.00 | 99 | 1011.7 |
| 20260510070522 | 49 | 82 | 0.0 | 0.0 | 0.00 | 0.00 | 0.00 | 99 | 1011.6 |
| 20260510070019 | 49 | 82 | 0.0 | 0.0 | 0.00 | 0.00 | 0.00 | 99 | 1011.5 |
| 20260510065515 | 50 | 82 | 0.0 | 0.0 | 0.00 | 0.00 | 0.00 | 99 | 1011.6 |
| 20260510065011 | 49 | 80 | 0.0 | 0.0 | 0.00 | 0.00 | 0.00 | 99 | 1011.5 |
| 20260510064509 | 49 | 78 | 0.0 | 1.0 | 0.00 | 0.00 | 0.00 | 99 | 1011.7 |
| 20260510064005 | 49 | 66 | 0.0 | 0.0 | 0.00 | 0.00 | 0.00 | 99 | 1011.7 |
| 20260510063502 | 49 | 62 | 1.0 | 2.0 | 0.00 | 0.00 | 0.00 | 99 | 1011.7 |
| 20260510062959 | 49 | 66 | 1.0 | 1.0 | 0.00 | 0.00 | 0.00 | 99 | 1011.4 |
| 20260510062455 | 49 | 26 | 1.0 | 2.0 | 0.00 | 0.00 | 0.00 | 99 | 1011.5 |
| 20260510061950 | 49 | 78 | 0.0 | 0.0 | 0.00 | 0.00 | 0.00 | 99 | 1011.4 |
| 20260510061447 | 50 | 78 | 0.0 | 0.0 | 0.00 | 0.00 | 0.00 | 99 | 1011.3 |
| 20260510060943 | 50 | 78 | 0.0 | 0.0 | 0.00 | 0.00 | 0.00 | 99 | 1011.3 |
| 20260510060441 | 50 | 78 | 0.0 | 0.0 | 0.00 | 0.00 | 0.00 | 99 | 1011.4 |
| 20260510055936 | 50 | 78 | 0.0 | 0.0 | 0.00 | 0.00 | 0.00 | 99 | 1011.4 |
| 20260510055432 | 50 | 78 | 0.0 | 0.0 | 0.00 | 0.00 | 0.00 | 99 | 1011.5 |
| 20260510054930 | 50 | 78 | 0.0 | 0.0 | 0.00 | 0.00 | 0.00 | 99 | 1011.3 |
| 20260510054426 | 50 | 78 | 0.0 | 0.0 | 0.00 | 0.00 | 0.00 | 99 | 1011.4 |
| 20260510053921 | 50 | 74 | 0.0 | 0.0 | 0.00 | 0.00 | 0.00 | 99 | 1011.3 |
| 20260510053417 | 50 | 78 | 0.0 | 0.0 | 0.00 | 0.00 | 0.00 | 99 | 1011.4 |
| 20260510052913 | 50 | 78 | 0.0 | 0.0 | 0.00 | 0.00 | 0.00 | 99 | 1011.6 |
| 20260510052409 | 50 | 87 | 0.0 | 1.0 | 0.00 | 0.00 | 0.00 | 99 | 1011.6 |
| 20260510051905 | 50 | 93 | 0.0 | 0.0 | 0.00 | 0.00 | 0.00 | 99 | 1011.5 |
| 20260510051402 | 50 | 93 | 0.0 | 0.0 | 0.00 | 0.00 | 0.00 | 99 | 1011.8 |
| 20260510050858 | 50 | 89 | 0.0 | 0.0 | 0.00 | 0.00 | 0.00 | 99 | 1011.6 |
| 20260510050355 | 50 | 89 | 0.0 | 0.0 | 0.00 | 0.00 | 0.00 | 99 | 1011.7 |
| 20260510045852 | 50 | 80 | 0.0 | 0.0 | 0.00 | 0.00 | 0.00 | 99 | 1011.5 |
| 20260510045349 | 50 | 78 | 0.0 | 0.0 | 0.00 | 0.00 | 0.00 | 99 | 1011.6 |
| 20260510044846 | 50 | 85 | 0.0 | 0.0 | 0.00 | 0.00 | 0.00 | 99 | 1011.6 |
| 20260510044343 | 50 | 85 | 0.0 | 0.0 | 0.00 | 0.00 | 0.00 | 99 | 1011.6 |
| 20260510043839 | 50 | 78 | 0.0 | 0.0 | 0.00 | 0.00 | 0.00 | 99 | 1011.7 |
| 20260510043335 | 50 | 72 | 0.0 | 0.0 | 0.00 | 0.00 | 0.00 | 99 | 1011.7 |
| 20260510042834 | 50 | 79 | 0.0 | 0.0 | 0.00 | 0.00 | 0.00 | 99 | 1011.6 |
| 20260510042329 | 50 | 92 | 0.0 | 0.0 | 0.00 | 0.00 | 0.00 | 99 | 1011.5 |
| 20260510041825 | 49 | 94 | 0.0 | 0.0 | 0.00 | 0.00 | 0.00 | 99 | 1011.8 |
| 20260510041323 | 49 | 104 | 0.0 | 0.0 | 0.00 | 0.00 | 0.00 | 99 | 1011.8 |
| 20260510040820 | 49 | 104 | 0.0 | 0.0 | 0.00 | 0.00 | 0.00 | 99 | 1012.0 |
| 20260510040316 | 49 | 75 | 0.0 | 0.0 | 0.00 | 0.00 | 0.00 | 99 | 1011.7 |
| 20260510035812 | 49 | 78 | 0.0 | 0.0 | 0.00 | 0.10 | 0.10 | 99 | 1011.5 |
| 20260510035308 | 49 | 78 | 0.0 | 0.0 | 0.00 | 0.10 | 0.10 | 99 | 1011.5 |
| 20260510034804 | 49 | 77 | 0.0 | 0.0 | 0.00 | 0.10 | 0.10 | 99 | 1011.4 |
| 20260510034302 | 50 | 75 | 0.0 | 0.0 | 0.00 | 0.10 | 0.10 | 99 | 1011.5 |
| 20260510033758 | 50 | 74 | 0.0 | 0.0 | 0.00 | 0.10 | 0.10 | 99 | 1011.3 |
| 20260510033256 | 50 | 77 | 0.0 | 0.0 | 0.00 | 0.10 | 0.10 | 99 | 1011.4 |
| 20260510032751 | 50 | 75 | 0.0 | 0.0 | 0.00 | 0.10 | 0.10 | 99 | 1011.4 |
| 20260510032248 | 49 | 75 | 0.0 | 0.0 | 0.00 | 0.10 | 0.10 | 99 | 1011.3 |
| 20260510031743 | 49 | 78 | 0.0 | 0.0 | 0.00 | 0.10 | 0.10 | 99 | 1011.4 |
| 20260510031239 | 49 | 77 | 0.0 | 0.0 | 0.00 | 0.10 | 0.10 | 99 | 1011.3 |
| 20260510030739 | 50 | 75 | 0.0 | 0.0 | 0.00 | 0.10 | 0.10 | 99 | 1011.1 |
| 20260510030231 | 51 | 75 | 0.0 | 0.0 | 0.00 | 0.10 | 0.10 | 99 | 1011.3 |
| 20260510025728 | 50 | 75 | 0.0 | 0.0 | 0.00 | 0.10 | 0.10 | 99 | 1011.2 |
| 20260510025226 | 51 | 75 | 0.0 | 0.0 | 0.00 | 0.10 | 0.10 | 99 | 1011.4 |
| 20260510024722 | 51 | 75 | 0.0 | 0.0 | 0.00 | 0.10 | 0.10 | 99 | 1011.5 |
| 20260510024219 | 51 | 75 | 0.0 | 0.0 | 0.00 | 0.10 | 0.10 | 99 | 1011.4 |
| 20260510023714 | 51 | 74 | 0.0 | 0.0 | 0.00 | 0.10 | 0.10 | 99 | 1011.0 |
| 20260510023212 | 51 | 78 | 0.0 | 0.0 | 0.00 | 0.10 | 0.10 | 99 | 1011.2 |
| 20260510022708 | 51 | 82 | 0.0 | 0.0 | 0.00 | 0.10 | 0.10 | 99 | 1011.2 |
| 20260510022203 | 51 | 74 | 0.0 | 0.0 | 0.00 | 0.10 | 0.10 | 99 | 1011.4 |
| 20260510021658 | 51 | 27 | 1.0 | 1.0 | 0.00 | 0.10 | 0.10 | 99 | 1011.2 |
| 20260510021155 | 51 | 354 | 2.0 | 2.0 | 0.00 | 0.10 | 0.10 | 99 | 1011.4 |
| 20260510020650 | 52 | 62 | 1.0 | 1.0 | 0.00 | 0.10 | 0.10 | 99 | 1011.2 |
| 20260510020145 | 52 | 54 | 0.0 | 0.0 | 0.00 | 0.10 | 0.10 | 99 | 1011.4 |
| 20260510015641 | 52 | 78 | 0.0 | 0.0 | 0.00 | 0.10 | 0.10 | 99 | 1011.2 |
| 20260510015138 | 52 | 78 | 0.0 | 0.0 | 0.00 | 0.10 | 0.10 | 99 | 1011.5 |
| 20260510014638 | 52 | 82 | 0.0 | 0.0 | 0.00 | 0.10 | 0.10 | 99 | 1011.1 |
| 20260510014136 | 52 | 82 | 0.0 | 0.0 | 0.00 | 0.10 | 0.10 | 99 | 1011.3 |
| 20260510013631 | 52 | 82 | 0.0 | 0.0 | 0.00 | 0.10 | 0.10 | 99 | 1011.2 |
| 20260510013126 | 52 | 82 | 0.0 | 0.0 | 0.00 | 0.10 | 0.10 | 99 | 1011.2 |
| 20260510012626 | 52 | 82 | 0.0 | 0.0 | 0.00 | 0.10 | 0.10 | 99 | 1011.3 |
| 20260510012123 | 52 | 80 | 0.0 | 0.0 | 0.00 | 0.10 | 0.10 | 99 | 1011.1 |
| 20260510011623 | 53 | 110 | 0.0 | 0.0 | 0.00 | 0.10 | 0.10 | 99 | 1011.4 |
| 20260510011119 | 53 | 111 | 0.0 | 0.0 | 0.00 | 0.10 | 0.10 | 99 | 1011.5 |
| 20260510010615 | 53 | 111 | 0.0 | 0.0 | 0.00 | 0.10 | 0.10 | 99 | 1011.2 |
| 20260510010113 | 53 | 111 | 0.0 | 0.0 | 0.00 | 0.10 | 0.10 | 99 | 1011.2 |
| 20260510005608 | 53 | 111 | 0.0 | 0.0 | 0.00 | 0.10 | 0.10 | 99 | 1010.9 |
| 20260510005106 | 53 | 111 | 0.0 | 0.0 | 0.00 | 0.10 | 0.10 | 99 | 1010.9 |
| 20260510004603 | 53 | 111 | 0.0 | 0.0 | 0.00 | 0.10 | 0.10 | 99 | 1010.7 |
| 20260510004101 | 53 | 111 | 0.0 | 0.0 | 0.00 | 0.10 | 0.10 | 99 | 1010.6 |
| 20260510003558 | 53 | 111 | 0.0 | 0.0 | 0.00 | 0.10 | 0.10 | 99 | 1010.7 |
| 20260510003054 | 53 | 111 | 0.0 | 0.0 | 0.00 | 0.10 | 0.10 | 99 | 1010.6 |
| 20260510002548 | 53 | 111 | 0.0 | 0.0 | 0.00 | 0.10 | 0.10 | 99 | 1010.8 |
| 20260510002046 | 53 | 110 | 0.0 | 0.0 | 0.00 | 0.10 | 0.10 | 99 | 1010.7 |
| 20260510001543 | 53 | 110 | 0.0 | 0.0 | 0.00 | 0.10 | 0.10 | 99 | 1010.8 |
| 20260510001042 | 53 | 110 | 0.0 | 0.0 | 0.00 | 0.10 | 0.10 | 99 | 1010.7 |
| 20260510000536 | 53 | 110 | 0.0 | 0.0 | 0.00 | 0.10 | 0.10 | 99 | 1010.9 |
| 20260510000033 | 53 | 110 | 0.0 | 0.0 | 0.00 | 0.10 | 0.10 | 99 | 1010.8 |
| 20260509235530 | 53 | 110 | 0.0 | 0.0 | 0.00 | 0.10 | 0.10 | 99 | 1010.8 |
| 20260509235027 | 53 | 111 | 0.0 | 0.0 | 0.00 | 0.10 | 0.10 | 99 | 1010.7 |
| 20260509234523 | 53 | 111 | 0.0 | 0.0 | 0.00 | 0.10 | 0.10 | 99 | 1010.7 |
| 20260509234021 | 53 | 123 | 0.0 | 1.0 | 0.00 | 0.10 | 0.10 | 99 | 1010.6 |
| 20260509233518 | 53 | 120 | 1.0 | 1.0 | 0.00 | 0.10 | 0.10 | 99 | 1010.5 |
| 20260509233015 | 53 | 113 | 0.0 | 0.0 | 0.00 | 0.10 | 0.10 | 99 | 1010.3 |
| 20260509232512 | 53 | 128 | 0.0 | 1.0 | 0.00 | 0.10 | 0.10 | 99 | 1010.4 |
| 20260509232009 | 54 | 121 | 0.0 | 1.0 | 0.00 | 0.10 | 0.10 | 99 | 1010.4 |
| 20260509231505 | 54 | 131 | 1.0 | 1.0 | 0.00 | 0.10 | 0.10 | 99 | 1010.5 |
| 20260509231003 | 54 | 130 | 2.0 | 3.0 | 0.00 | 0.10 | 0.10 | 99 | 1010.3 |
| 20260509230459 | 54 | 135 | 1.0 | 2.0 | 0.00 | 0.10 | 0.10 | 99 | 1010.3 |
| 20260509225955 | 54 | 131 | 1.0 | 1.0 | 0.00 | 0.10 | 0.10 | 99 | 1010.6 |
| 20260509225452 | 54 | 116 | 1.0 | 1.0 | 0.00 | 0.10 | 0.10 | 99 | 1010.6 |
| 20260509224948 | 54 | 121 | 1.0 | 2.0 | 0.00 | 0.10 | 0.10 | 99 | 1010.7 |
| 20260509224443 | 54 | 124 | 1.0 | 1.0 | 0.00 | 0.10 | 0.10 | 99 | 1010.7 |
| 20260509223940 | 54 | 128 | 1.0 | 1.0 | 0.00 | 0.10 | 0.10 | 99 | 1010.7 |
| 20260509223437 | 54 | 128 | 1.0 | 2.0 | 0.00 | 0.10 | 0.10 | 99 | 1010.7 |
| 20260509222935 | 54 | 120 | 0.0 | 0.0 | 0.00 | 0.10 | 0.10 | 99 | 1010.5 |
| 20260509222430 | 54 | 135 | 2.0 | 2.0 | 0.00 | 0.10 | 0.10 | 98 | 1010.7 |
| 20260509221926 | 54 | 109 | 1.0 | 1.0 | 0.00 | 0.10 | 0.10 | 98 | 1010.8 |
| 20260509221423 | 54 | 130 | 1.0 | 1.0 | 0.00 | 0.10 | 0.10 | 98 | 1011.1 |
| 20260509220918 | 54 | 159 | 1.0 | 2.0 | 0.00 | 0.10 | 0.10 | 98 | 1011.0 |
| 20260509220415 | 54 | 126 | 1.0 | 1.0 | 0.00 | 0.10 | 0.10 | 98 | 1010.8 |
| 20260509215911 | 54 | 141 | 2.0 | 2.0 | 0.00 | 0.10 | 0.10 | 98 | 1010.9 |
| 20260509215406 | 54 | 134 | 2.0 | 2.0 | 0.00 | 0.10 | 0.10 | 97 | 1011.0 |
| 20260509214904 | 54 | 128 | 1.0 | 1.0 | 0.00 | 0.10 | 0.10 | 97 | 1010.9 |
| 20260509214401 | 54 | 117 | 1.0 | 1.0 | 0.00 | 0.10 | 0.10 | 97 | 1011.2 |
| 20260509213858 | 54 | 107 | 0.0 | 0.0 | 0.17 | 0.10 | 0.10 | 96 | 1011.1 |
| 20260509213353 | 54 | 90 | 0.0 | 0.0 | 0.24 | 0.10 | 0.10 | 96 | 1011.1 |
| 20260509212851 | 54 | 88 | 0.0 | 0.0 | 0.19 | 0.07 | 0.07 | 96 | 1010.8 |
| 20260509212349 | 55 | 95 | 0.0 | 0.0 | 0.17 | 0.06 | 0.06 | 95 | 1011.4 |
| 20260509211844 | 55 | 80 | 0.0 | 0.0 | 0.12 | 0.04 | 0.04 | 94 | 1011.2 |
| 20260509211340 | 55 | 79 | 0.0 | 0.0 | 0.14 | 0.03 | 0.03 | 93 | 1011.0 |
| 20260509210837 | 56 | 80 | 0.0 | 0.0 | 0.12 | 0.02 | 0.02 | 93 | 1010.9 |
| 20260509210335 | 56 | 80 | 0.0 | 0.0 | 0.12 | 0.02 | 0.02 | 92 | 1010.8 |
| 20260509205834 | 56 | 81 | 0.0 | 0.0 | 0.00 | 0.00 | 0.00 | 92 | 1010.7 |
| 20260509205329 | 56 | 80 | 0.0 | 0.0 | 0.00 | 0.00 | 0.00 | 91 | 1011.1 |
| 20260509204826 | 56 | 80 | 0.0 | 0.0 | 0.00 | 0.00 | 0.00 | 91 | 1010.8 |
| 20260509204322 | 57 | 80 | 0.0 | 0.0 | 0.00 | 0.00 | 0.00 | 91 | 1010.9 |
| 20260509203818 | 57 | 80 | 0.0 | 0.0 | 0.00 | 0.00 | 0.00 | 91 | 1010.9 |
| 20260509203316 | 56 | 80 | 0.0 | 0.0 | 0.00 | 0.00 | 0.00 | 91 | 1010.4 |
| 20260509202812 | 56 | 80 | 0.0 | 0.0 | 0.00 | 0.00 | 0.00 | 90 | 1010.8 |
| 20260509202308 | 57 | 81 | 0.0 | 0.0 | 0.00 | 0.00 | 0.00 | 91 | 1010.8 |
| 20260509201807 | 57 | 81 | 0.0 | 0.0 | 0.00 | 0.00 | 0.00 | 90 | 1010.9 |
| 20260509201304 | 57 | 88 | 0.0 | 0.0 | 0.00 | 0.00 | 0.00 | 91 | 1010.9 |
| 20260509200801 | 57 | 80 | 0.0 | 0.0 | 0.00 | 0.00 | 0.00 | 90 | 1010.9 |
| 20260509200256 | 57 | 82 | 0.0 | 0.0 | 0.00 | 0.00 | 0.00 | 90 | 1011.1 |
| 20260509195752 | 57 | 103 | 0.0 | 0.0 | 0.00 | 0.00 | 0.00 | 89 | 1011.1 |
| 20260509195248 | 57 | 78 | 0.0 | 0.0 | 0.00 | 0.00 | 0.00 | 89 | 1011.4 |
| 20260509194742 | 57 | 82 | 0.0 | 0.0 | 0.00 | 0.00 | 0.00 | 88 | 1011.2 |
| 20260509194239 | 57 | 62 | 1.0 | 2.0 | 0.00 | 0.00 | 0.00 | 88 | 1011.3 |
| 20260509193736 | 57 | 75 | 0.0 | 0.0 | 0.00 | 0.00 | 0.00 | 87 | 1011.6 |
| 20260509193235 | 57 | 75 | 0.0 | 1.0 | 0.00 | 0.00 | 0.00 | 86 | 1011.6 |
| 20260509192732 | 58 | 82 | 0.0 | 0.0 | 0.00 | 0.00 | 0.00 | 86 | 1011.6 |
| 20260509192227 | 57 | 109 | 1.0 | 2.0 | 0.00 | 0.00 | 0.00 | 84 | 1011.7 |
| 20260509191722 | 58 | 54 | 1.0 | 1.0 | 0.00 | 0.00 | 0.00 | 84 | 1011.7 |
| 20260509191219 | 58 | 83 | 1.0 | 1.0 | 0.00 | 0.00 | 0.00 | 83 | 1011.5 |
| 20260509190715 | 58 | 123 | 1.0 | 1.0 | 0.00 | 0.00 | 0.00 | 83 | 1011.7 |
| 20260509190212 | 58 | 66 | 1.0 | 1.0 | 0.00 | 0.00 | 0.00 | 83 | 1011.4 |
| 20260509185710 | 58 | 62 | 1.0 | 1.0 | 0.00 | 0.00 | 0.00 | 83 | 1011.6 |
| 20260509185206 | 58 | 70 | 0.0 | 1.0 | 0.00 | 0.00 | 0.00 | 84 | 1011.1 |
| 20260509184704 | 59 | 58 | 1.0 | 1.0 | 0.00 | 0.00 | 0.00 | 84 | 1011.2 |
| 20260509184201 | 59 | 74 | 0.0 | 0.0 | 0.00 | 0.00 | 0.00 | 85 | 1011.3 |
| 20260509183657 | 59 | 75 | 0.0 | 0.0 | 0.00 | 0.00 | 0.00 | 85 | 1011.4 |
| 20260509183152 | 58 | 75 | 0.0 | 0.0 | 0.00 | 0.00 | 0.00 | 85 | 1011.6 |
| 20260509182648 | 58 | 90 | 0.0 | 0.0 | 0.00 | 0.00 | 0.00 | 85 | 1011.4 |
| 20260509182146 | 58 | 62 | 1.0 | 1.0 | 0.00 | 0.00 | 0.00 | 85 | 1011.6 |
| 20260509181643 | 58 | 80 | 0.0 | 0.0 | 0.00 | 0.00 | 0.00 | 85 | 1011.3 |
| 20260509181141 | 59 | 99 | 0.0 | 0.0 | 0.00 | 0.00 | 0.00 | 85 | 1011.2 |
| 20260509180637 | 59 | 41 | 1.0 | 1.0 | 0.00 | 0.00 | 0.00 | 83 | 1011.5 |
| 20260509180134 | 59 | 100 | 0.0 | 0.0 | 0.00 | 0.00 | 0.00 | 82 | 1011.5 |